Time;durP1;ratioP1;P1;durP2;ratioP2;P2;SDS_P1;SDS_P2;PMS_P1;PMS_P2;Temp;Humidity;BMP_temperature;BMP_pressure;BME280_temperature;BME280_humidity;BME280_pressure;Samples;Min_cycle;Max_cycle;Signal;HPM_P1;HPM_P2
2024/02/02 00:00:15;;;;;;;3.78;0.70;;;;;;;;;;2072063;28;20033;-77
2024/02/02 00:01:35;;;;;;;0.65;0.40;;;;;;;;;;2073703;28;20026;-74
2024/02/02 00:02:55;;;;;;;3.05;0.70;;;;;;;;;;2075340;28;20026;-77
2024/02/02 00:04:14;;;;;;;3.70;1.10;;;;;;;;;;2077290;28;20038;-76
2024/02/02 00:05:32;;;;;;;3.67;0.60;;;;;;;;;;2067901;28;20027;-77
2024/02/02 00:06:52;;;;;;;2.67;0.68;;;;;;;;;;2069837;28;20026;-76
2024/02/02 00:08:10;;;;;;;1.67;0.47;;;;;;;;;;2075377;28;20034;-76
2024/02/02 00:09:29;;;;;;;5.38;0.70;;;;;;;;;;2077036;28;20105;-77
2024/02/02 00:10:48;;;;;;;4.05;1.08;;;;;;;;;;2075821;28;20022;-78
2024/02/02 00:12:10;;;;;;;3.05;0.68;;;;;;;;;;2076114;28;20025;-78
2024/02/02 00:13:29;;;;;;;2.10;0.57;;;;;;;;;;2065428;28;20042;-78
2024/02/02 00:14:48;;;;;;;1.75;0.40;;;;;;;;;;2071592;28;20509;-78
2024/02/02 00:16:07;;;;;;;5.25;0.80;;;;;;;;;;2066765;28;20038;-77
2024/02/02 00:17:26;;;;;;;2.97;0.80;;;;;;;;;;2072797;28;20018;-78
2024/02/02 00:18:44;;;;;;;1.67;0.50;;;;;;;;;;2075266;28;20027;-78
2024/02/02 00:20:04;;;;;;;1.75;0.45;;;;;;;;;;2076429;28;20403;-78
2024/02/02 00:21:23;;;;;;;3.33;0.60;;;;;;;;;;2076685;28;20021;-78
2024/02/02 00:22:42;;;;;;;3.33;0.90;;;;;;;;;;2076137;28;20078;-77
2024/02/02 00:24:01;;;;;;;3.22;0.85;;;;;;;;;;2066404;28;20034;-77
2024/02/02 00:25:20;;;;;;;2.20;0.60;;;;;;;;;;2073287;28;20053;-77
2024/02/02 00:26:39;;;;;;;0.98;0.63;;;;;;;;;;2073578;28;20049;-78
2024/02/02 00:27:58;;;;;;;2.25;0.40;;;;;;;;;;2066244;28;20030;-79
2024/02/02 00:29:17;;;;;;;3.05;0.57;;;;;;;;;;2070707;28;20022;-77
2024/02/02 00:30:37;;;;;;;1.05;0.40;;;;;;;;;;2067099;28;20669;-77
2024/02/02 00:31:56;;;;;;;1.65;0.50;;;;;;;;;;2072480;28;20034;-78
2024/02/02 00:33:14;;;;;;;2.53;0.63;;;;;;;;;;2067228;28;20500;-77
2024/02/02 00:34:34;;;;;;;3.17;0.70;;;;;;;;;;2063338;28;20397;-78
2024/02/02 00:35:52;;;;;;;1.70;0.50;;;;;;;;;;2071159;28;20400;-78
2024/02/02 00:37:12;;;;;;;2.00;0.60;;;;;;;;;;2075839;28;20038;-78
2024/02/02 00:38:31;;;;;;;1.48;0.50;;;;;;;;;;2075921;28;20069;-78
2024/02/02 00:39:50;;;;;;;2.58;0.80;;;;;;;;;;2077448;28;20022;-78
2024/02/02 00:41:09;;;;;;;0.73;0.73;;;;;;;;;;2075750;28;20026;-77
2024/02/02 00:42:28;;;;;;;4.63;0.68;;;;;;;;;;2066818;28;20428;-77
2024/02/02 00:43:47;;;;;;;1.25;0.60;;;;;;;;;;2074573;28;20034;-76
2024/02/02 00:45:07;;;;;;;4.85;0.52;;;;;;;;;;2066896;28;20019;-77
2024/02/02 00:46:28;;;;;;;1.60;0.85;;;;;;;;;;2071180;28;20034;-78
2024/02/02 00:47:48;;;;;;;2.40;0.60;;;;;;;;;;2074672;28;20029;-77
2024/02/02 00:49:07;;;;;;;1.75;0.47;;;;;;;;;;2067474;28;20034;-77
2024/02/02 00:50:26;;;;;;;5.10;0.85;;;;;;;;;;2071053;28;20041;-77
2024/02/02 00:51:45;;;;;;;1.60;0.38;;;;;;;;;;2075094;28;20022;-78
2024/02/02 00:53:03;;;;;;;5.82;0.40;;;;;;;;;;2068020;28;20034;-77
2024/02/02 00:54:23;;;;;;;3.67;0.68;;;;;;;;;;2071467;28;20030;-78
2024/02/02 00:55:42;;;;;;;1.50;0.50;;;;;;;;;;2066364;28;20030;-78
2024/02/02 00:57:00;;;;;;;2.10;0.30;;;;;;;;;;2072319;28;20030;-77
2024/02/02 00:58:19;;;;;;;2.22;0.47;;;;;;;;;;2075072;28;20606;-77
2024/02/02 00:59:38;;;;;;;1.58;0.45;;;;;;;;;;2076084;28;20030;-78
2024/02/02 01:00:57;;;;;;;1.25;0.65;;;;;;;;;;2075666;28;20496;-78
2024/02/02 01:02:17;;;;;;;2.35;0.80;;;;;;;;;;2075934;28;20136;-78
2024/02/02 01:03:37;;;;;;;2.35;0.50;;;;;;;;;;2074939;28;20025;-78
2024/02/02 01:04:58;;;;;;;4.50;0.40;;;;;;;;;;2076215;28;20037;-78
2024/02/02 01:06:17;;;;;;;1.98;0.77;;;;;;;;;;2075902;28;20037;-78
2024/02/02 01:07:36;;;;;;;1.88;0.52;;;;;;;;;;2076087;28;20033;-77
2024/02/02 01:08:55;;;;;;;2.72;0.77;;;;;;;;;;2075936;28;20049;-77
2024/02/02 01:10:16;;;;;;;3.67;0.60;;;;;;;;;;2076182;28;20038;-77
2024/02/02 01:11:35;;;;;;;3.35;0.68;;;;;;;;;;2075370;28;20508;-78
2024/02/02 01:12:55;;;;;;;2.08;0.80;;;;;;;;;;2075131;28;20026;-78
2024/02/02 01:14:15;;;;;;;1.23;0.43;;;;;;;;;;2075968;28;20026;-78
2024/02/02 01:15:35;;;;;;;1.65;0.60;;;;;;;;;;2075852;28;20053;-78
2024/02/02 01:16:54;;;;;;;0.85;0.40;;;;;;;;;;2075381;28;20497;-78
2024/02/02 01:18:14;;;;;;;4.70;0.40;;;;;;;;;;2072865;28;20033;-78
2024/02/02 01:19:35;;;;;;;1.17;0.40;;;;;;;;;;2067884;28;20025;-78
2024/02/02 01:20:54;;;;;;;1.63;0.68;;;;;;;;;;2071044;28;20026;-78
2024/02/02 01:22:14;;;;;;;0.90;0.50;;;;;;;;;;2066970;28;20078;-77
2024/02/02 01:23:32;;;;;;;1.95;0.50;;;;;;;;;;2072267;28;20029;-77
2024/02/02 01:24:51;;;;;;;4.55;0.50;;;;;;;;;;2075215;28;20423;-77
2024/02/02 01:26:10;;;;;;;1.02;0.40;;;;;;;;;;2074354;28;20030;-77
2024/02/02 01:27:29;;;;;;;1.85;0.55;;;;;;;;;;2076010;28;20508;-77
2024/02/02 01:28:49;;;;;;;1.17;0.65;;;;;;;;;;2065869;28;20030;-77
2024/02/02 01:30:08;;;;;;;2.38;0.38;;;;;;;;;;2064225;28;20113;-77
2024/02/02 01:31:27;;;;;;;1.77;0.50;;;;;;;;;;2066916;28;20061;-78
2024/02/02 01:32:47;;;;;;;2.20;0.50;;;;;;;;;;2070932;28;20037;-78
2024/02/02 01:34:06;;;;;;;1.60;0.47;;;;;;;;;;2066664;28;20465;-77
2024/02/02 01:35:26;;;;;;;2.15;0.50;;;;;;;;;;2071870;28;20046;-78
2024/02/02 01:36:45;;;;;;;1.83;0.40;;;;;;;;;;2066738;28;20139;-77
2024/02/02 01:38:04;;;;;;;3.70;0.55;;;;;;;;;;2072167;28;20030;-77
2024/02/02 01:39:23;;;;;;;3.15;0.70;;;;;;;;;;2074452;28;20078;-77
2024/02/02 01:40:42;;;;;;;2.92;0.75;;;;;;;;;;2075464;28;20041;-78
2024/02/02 01:42:01;;;;;;;1.23;0.40;;;;;;;;;;2075791;28;20033;-78
2024/02/02 01:43:23;;;;;;;0.60;0.60;;;;;;;;;;2067290;28;20014;-78
2024/02/02 01:44:42;;;;;;;1.08;0.38;;;;;;;;;;2072002;28;20045;-78
2024/02/02 01:46:01;;;;;;;2.40;0.50;;;;;;;;;;2066621;28;20472;-78
2024/02/02 01:47:20;;;;;;;0.85;0.55;;;;;;;;;;2071791;28;20030;-78
2024/02/02 01:48:39;;;;;;;5.25;0.90;;;;;;;;;;2065160;28;20101;-77
2024/02/02 01:49:58;;;;;;;1.13;0.50;;;;;;;;;;2071990;28;20049;-78
2024/02/02 01:51:17;;;;;;;0.75;0.50;;;;;;;;;;2066962;28;20097;-78
2024/02/02 01:52:36;;;;;;;3.97;0.60;;;;;;;;;;2072459;28;20091;-78
2024/02/02 01:53:56;;;;;;;1.77;0.60;;;;;;;;;;2075531;28;20072;-78
2024/02/02 01:55:15;;;;;;;1.13;0.40;;;;;;;;;;2075758;28;20062;-78
2024/02/02 01:56:34;;;;;;;1.67;0.60;;;;;;;;;;2075203;28;20037;-77
2024/02/02 01:57:54;;;;;;;2.80;0.65;;;;;;;;;;2075823;28;20030;-79
2024/02/02 01:59:13;;;;;;;2.65;0.50;;;;;;;;;;2076219;28;20430;-77
2024/02/02 02:00:32;;;;;;;4.40;0.57;;;;;;;;;;2074535;28;20431;-77
2024/02/02 02:01:51;;;;;;;1.75;0.80;;;;;;;;;;2075083;28;20424;-77
2024/02/02 02:03:10;;;;;;;2.33;0.55;;;;;;;;;;2075612;28;20030;-78
2024/02/02 02:04:29;;;;;;;2.80;0.50;;;;;;;;;;2075219;28;20033;-77
2024/02/02 02:05:48;;;;;;;2.92;0.85;;;;;;;;;;2065624;28;20035;-77
2024/02/02 02:07:08;;;;;;;1.98;0.60;;;;;;;;;;2072072;28;20025;-77
2024/02/02 02:08:27;;;;;;;4.25;0.63;;;;;;;;;;2075242;28;20026;-77
2024/02/02 02:09:46;;;;;;;3.55;0.70;;;;;;;;;;2076007;28;20038;-78
2024/02/02 02:11:06;;;;;;;0.63;0.40;;;;;;;;;;2066744;28;20512;-78
2024/02/02 02:12:26;;;;;;;4.85;0.63;;;;;;;;;;2070901;28;20030;-78
2024/02/02 02:13:45;;;;;;;1.92;0.80;;;;;;;;;;2072809;28;20021;-78
2024/02/02 02:15:04;;;;;;;1.45;0.60;;;;;;;;;;2067371;28;20022;-77
2024/02/02 02:16:24;;;;;;;3.58;0.57;;;;;;;;;;2070632;28;20117;-78
2024/02/02 02:17:43;;;;;;;1.35;0.60;;;;;;;;;;2076063;28;20026;-76
2024/02/02 02:19:03;;;;;;;6.10;0.90;;;;;;;;;;2072772;28;20030;-76
2024/02/02 02:20:25;;;;;;;2.05;0.50;;;;;;;;;;2065071;28;20456;-77
2024/02/02 02:21:44;;;;;;;2.88;0.63;;;;;;;;;;2064223;28;20030;-77
2024/02/02 02:23:03;;;;;;;1.15;0.50;;;;;;;;;;2078445;28;20061;-77
2024/02/02 02:24:23;;;;;;;1.38;0.70;;;;;;;;;;2073742;28;20026;-77
2024/02/02 02:25:43;;;;;;;1.90;1.00;;;;;;;;;;2073998;28;20504;-77
2024/02/02 02:27:03;;;;;;;1.55;0.65;;;;;;;;;;2077514;28;20033;-77
2024/02/02 02:28:22;;;;;;;1.27;0.60;;;;;;;;;;2068889;28;20026;-76
2024/02/02 02:29:42;;;;;;;2.38;0.77;;;;;;;;;;2075246;28;20030;-77
2024/02/02 02:31:01;;;;;;;2.45;0.70;;;;;;;;;;2070266;28;20030;-77
2024/02/02 02:32:21;;;;;;;2.47;0.50;;;;;;;;;;2074341;28;20448;-77
2024/02/02 02:33:41;;;;;;;3.35;0.52;;;;;;;;;;2073408;28;20033;-78
2024/02/02 02:35:00;;;;;;;3.80;0.52;;;;;;;;;;2082140;28;20021;-77
2024/02/02 02:36:23;;;;;;;2.33;0.70;;;;;;;;;;2072707;28;20029;-77
2024/02/02 02:37:43;;;;;;;4.95;0.80;;;;;;;;;;2069839;28;20014;-77
2024/02/02 02:39:05;;;;;;;5.13;0.77;;;;;;;;;;2070454;28;20046;-77
2024/02/02 02:40:24;;;;;;;;;;;;;;;;;;2075245;28;20026;-77
2024/02/02 02:42:10;;;;;;;3.05;0.85;;;;;;;;;;2073804;28;19909;-78
2024/02/02 02:43:55;;;;;;;3.83;1.13;;;;;;;;;;2071274;28;20310;-77
2024/02/02 02:45:38;;;;;;;2.55;0.50;;;;;;;;;;2071795;28;20030;-78
2024/02/02 02:47:26;;;;;;;5.30;1.45;;;;;;;;;;2068715;28;20034;-78
2024/02/02 02:48:47;;;;;;;3.67;0.52;;;;;;;;;;2073893;28;20038;-77
2024/02/02 02:56:35;;;;;;;1.30;0.90;;;;;;;;;;2073608;28;20034;-77
2024/02/02 02:58:20;;;;;;;4.10;0.80;;;;;;;;;;2060231;28;20030;-77
2024/02/02 03:00:04;;;;;;;5.38;0.65;;;;;;;;;;2073326;28;20026;-77
2024/02/02 03:01:49;;;;;;;3.35;1.25;;;;;;;;;;2069738;28;20100;-77
2024/02/02 03:03:33;;;;;;;2.53;1.08;;;;;;;;;;2074145;28;20025;-78
2024/02/02 03:05:17;;;;;;;2.80;0.70;;;;;;;;;;2078154;28;20184;-78
2024/02/02 03:06:38;;;;;;;3.38;0.90;;;;;;;;;;2075504;28;20034;-77
2024/02/02 03:07:56;;;;;;;4.03;0.68;;;;;;;;;;2078074;28;20041;-78
2024/02/02 03:09:16;;;;;;;5.30;0.90;;;;;;;;;;2079664;28;20033;-78
2024/02/02 03:10:38;;;;;;;2.25;0.85;;;;;;;;;;2062797;28;20038;-77
2024/02/02 03:11:57;;;;;;;4.50;1.00;;;;;;;;;;2073654;28;20029;-78
2024/02/02 03:13:17;;;;;;;1.50;0.60;;;;;;;;;;2081788;28;20109;-78
2024/02/02 03:14:36;;;;;;;2.00;0.60;;;;;;;;;;2074763;28;20029;-79
2024/02/02 03:15:56;;;;;;;2.95;0.80;;;;;;;;;;2070080;28;20121;-78
2024/02/02 03:17:15;;;;;;;2.75;0.90;;;;;;;;;;2081537;28;20061;-77
2024/02/02 03:18:35;;;;;;;5.70;1.05;;;;;;;;;;2069865;28;20422;-77
2024/02/02 03:19:54;;;;;;;3.42;0.90;;;;;;;;;;2072008;28;20022;-77
2024/02/02 03:21:13;;;;;;;1.88;0.90;;;;;;;;;;2081666;28;20333;-78
2024/02/02 03:22:33;;;;;;;2.67;1.00;;;;;;;;;;2079747;28;20030;-78
2024/02/02 03:23:52;;;;;;;7.10;1.00;;;;;;;;;;2074178;28;20049;-78
2024/02/02 03:25:11;;;;;;;3.20;0.55;;;;;;;;;;2067124;28;20062;-78
2024/02/02 03:26:31;;;;;;;4.88;0.70;;;;;;;;;;2078562;28;20034;-77
2024/02/02 03:27:50;;;;;;;2.60;1.00;;;;;;;;;;2073570;28;20030;-78
2024/02/02 03:29:09;;;;;;;1.45;0.68;;;;;;;;;;2073976;28;20026;-78
2024/02/02 03:30:31;;;;;;;3.75;0.88;;;;;;;;;;2073246;28;20489;-74
2024/02/02 03:31:50;;;;;;;3.00;0.82;;;;;;;;;;2069739;28;20030;-75
2024/02/02 03:33:10;;;;;;;2.70;0.75;;;;;;;;;;2067150;28;20505;-74
2024/02/02 03:34:29;;;;;;;3.70;0.80;;;;;;;;;;2072821;28;20397;-75
2024/02/02 03:35:48;;;;;;;2.58;1.20;;;;;;;;;;2067930;28;20042;-74
2024/02/02 03:37:07;;;;;;;2.45;0.98;;;;;;;;;;2071961;28;20030;-75
2024/02/02 03:38:27;;;;;;;3.05;0.95;;;;;;;;;;2058005;28;20030;-75
2024/02/02 03:39:47;;;;;;;3.10;1.20;;;;;;;;;;2071014;28;20022;-75
2024/02/02 03:41:06;;;;;;;4.65;1.10;;;;;;;;;;2074145;28;20018;-75
2024/02/02 03:42:26;;;;;;;3.50;0.75;;;;;;;;;;2077450;28;20021;-75
2024/02/02 03:43:46;;;;;;;1.88;0.55;;;;;;;;;;2062736;28;20022;-75
2024/02/02 03:45:05;;;;;;;3.35;0.90;;;;;;;;;;2072710;28;20065;-76
2024/02/02 03:46:25;;;;;;;4.20;1.20;;;;;;;;;;2075342;28;20029;-75
2024/02/02 03:47:44;;;;;;;3.45;1.15;;;;;;;;;;2071892;28;20027;-75
2024/02/02 03:49:03;;;;;;;3.10;0.57;;;;;;;;;;2074414;28;20042;-77
2024/02/02 03:50:22;;;;;;;4.93;0.90;;;;;;;;;;2077815;28;20033;-75
2024/02/02 03:51:41;;;;;;;4.55;0.70;;;;;;;;;;2069389;28;20026;-75
2024/02/02 03:53:00;;;;;;;2.80;0.77;;;;;;;;;;2063608;28;20035;-75
2024/02/02 03:54:19;;;;;;;4.90;1.00;;;;;;;;;;2074688;28;20049;-75
2024/02/02 03:55:39;;;;;;;2.80;1.23;;;;;;;;;;2067895;28;20054;-75
2024/02/02 03:56:58;;;;;;;4.88;0.80;;;;;;;;;;2076957;28;20021;-75
2024/02/02 03:58:18;;;;;;;6.18;1.20;;;;;;;;;;2074781;28;20034;-75
2024/02/02 03:59:37;;;;;;;3.95;0.90;;;;;;;;;;2071825;28;20034;-75
2024/02/02 04:00:56;;;;;;;4.07;0.90;;;;;;;;;;2065302;28;20030;-75
2024/02/02 04:02:16;;;;;;;5.47;1.20;;;;;;;;;;2074204;28;20025;-75
2024/02/02 04:03:35;;;;;;;2.40;0.77;;;;;;;;;;2078776;28;20030;-74
2024/02/02 04:04:55;;;;;;;2.85;0.70;;;;;;;;;;2076628;28;20053;-75
2024/02/02 04:06:14;;;;;;;8.10;1.10;;;;;;;;;;2078611;28;20022;-75
2024/02/02 04:07:33;;;;;;;5.30;1.38;;;;;;;;;;2073388;28;20030;-74
2024/02/02 04:08:52;;;;;;;4.18;0.90;;;;;;;;;;2075454;28;20026;-75
2024/02/02 04:10:13;;;;;;;8.15;1.23;;;;;;;;;;2075240;28;20492;-75
2024/02/02 04:11:32;;;;;;;5.35;1.20;;;;;;;;;;2076790;28;20061;-75
2024/02/02 04:12:51;;;;;;;4.88;1.10;;;;;;;;;;2076604;28;20029;-75
2024/02/02 04:14:10;;;;;;;5.43;1.17;;;;;;;;;;2073934;28;20495;-75
2024/02/02 04:15:29;;;;;;;7.75;1.63;;;;;;;;;;2073950;28;20038;-75
2024/02/02 04:16:48;;;;;;;3.80;0.82;;;;;;;;;;2075160;28;20046;-75
2024/02/02 04:18:07;;;;;;;10.00;1.50;;;;;;;;;;2067286;28;20026;-76
2024/02/02 04:19:26;;;;;;;4.55;0.80;;;;;;;;;;2064615;28;20022;-75
2024/02/02 04:20:45;;;;;;;2.90;0.75;;;;;;;;;;2063428;28;20026;-75
2024/02/02 04:22:03;;;;;;;3.63;0.90;;;;;;;;;;2071349;28;20441;-75
2024/02/02 04:23:25;;;;;;;2.67;1.10;;;;;;;;;;2076670;28;20029;-75
2024/02/02 04:24:44;;;;;;;5.28;0.85;;;;;;;;;;2067406;28;20019;-75
2024/02/02 04:26:03;;;;;;;5.72;1.77;;;;;;;;;;2055926;28;20039;-74
2024/02/02 04:27:22;;;;;;;4.60;1.20;;;;;;;;;;2069310;28;20021;-76
2024/02/02 04:28:41;;;;;;;8.02;1.42;;;;;;;;;;2075704;28;20026;-75
2024/02/02 04:30:00;;;;;;;6.60;1.23;;;;;;;;;;2075581;28;20038;-76
2024/02/02 04:31:19;;;;;;;7.75;1.25;;;;;;;;;;2067941;28;20025;-76
2024/02/02 04:32:38;;;;;;;4.57;1.50;;;;;;;;;;2070438;28;20021;-75
2024/02/02 04:33:57;;;;;;;4.57;1.20;;;;;;;;;;2076994;28;20038;-75
2024/02/02 04:35:16;;;;;;;4.22;0.90;;;;;;;;;;2067095;28;20026;-75
2024/02/02 04:36:35;;;;;;;3.25;1.08;;;;;;;;;;2071075;28;20026;-76
2024/02/02 04:37:54;;;;;;;8.10;1.13;;;;;;;;;;2066989;28;20034;-75
2024/02/02 04:39:12;;;;;;;7.03;1.05;;;;;;;;;;2073190;28;20033;-76
2024/02/02 04:40:32;;;;;;;6.35;1.40;;;;;;;;;;2076978;28;20433;-78
2024/02/02 04:41:51;;;;;;;5.82;1.35;;;;;;;;;;2075997;28;20045;-78
2024/02/02 04:43:10;;;;;;;8.13;1.13;;;;;;;;;;2073669;28;20025;-78
2024/02/02 04:44:29;;;;;;;6.20;1.15;;;;;;;;;;2074649;28;20421;-78
2024/02/02 04:45:48;;;;;;;4.72;0.85;;;;;;;;;;2077137;28;20041;-79
2024/02/02 04:47:08;;;;;;;4.43;1.23;;;;;;;;;;2075505;28;20014;-78
2024/02/02 04:48:27;;;;;;;4.95;1.27;;;;;;;;;;2075657;28;20025;-79
2024/02/02 04:49:46;;;;;;;7.07;1.00;;;;;;;;;;2073974;28;20033;-77
2024/02/02 04:51:05;;;;;;;5.68;1.00;;;;;;;;;;2076181;28;20022;-77
2024/02/02 04:52:24;;;;;;;5.13;0.90;;;;;;;;;;2074412;28;20022;-77
2024/02/02 04:53:43;;;;;;;5.18;1.13;;;;;;;;;;2076599;28;20021;-78
2024/02/02 04:55:03;;;;;;;4.57;0.85;;;;;;;;;;2075287;28;20045;-78
2024/02/02 04:56:22;;;;;;;12.63;1.55;;;;;;;;;;2074403;28;20052;-78
2024/02/02 04:57:41;;;;;;;5.53;0.98;;;;;;;;;;2067388;28;20034;-78
2024/02/02 04:59:00;;;;;;;3.20;1.17;;;;;;;;;;2066199;28;20481;-78
2024/02/02 05:00:19;;;;;;;7.18;0.98;;;;;;;;;;2067679;28;20046;-78
2024/02/02 05:01:38;;;;;;;6.53;1.60;;;;;;;;;;2063442;28;20025;-79
2024/02/02 05:02:58;;;;;;;6.60;1.10;;;;;;;;;;2071454;28;20030;-79
2024/02/02 05:04:17;;;;;;;6.75;1.13;;;;;;;;;;2074337;28;20045;-77
2024/02/02 05:05:37;;;;;;;11.48;1.50;;;;;;;;;;2073840;28;20026;-77
2024/02/02 05:06:56;;;;;;;4.38;1.20;;;;;;;;;;2075414;28;20116;-77
2024/02/02 05:08:15;;;;;;;8.82;1.27;;;;;;;;;;2074866;28;20117;-78
2024/02/02 05:09:34;;;;;;;10.93;1.30;;;;;;;;;;2074090;28;20548;-77
2024/02/02 05:10:53;;;;;;;3.13;0.82;;;;;;;;;;2073640;28;20065;-77
2024/02/02 05:12:14;;;;;;;12.13;1.67;;;;;;;;;;2075239;28;20042;-78
2024/02/02 05:13:33;;;;;;;10.32;1.10;;;;;;;;;;2076408;28;20112;-77
2024/02/02 05:14:52;;;;;;;6.65;1.40;;;;;;;;;;2074327;28;20045;-77
2024/02/02 05:16:11;;;;;;;6.15;1.13;;;;;;;;;;2072843;28;20080;-77
2024/02/02 05:17:30;;;;;;;8.32;1.20;;;;;;;;;;2075468;28;20026;-77
2024/02/02 05:18:50;;;;;;;12.00;1.90;;;;;;;;;;2074444;28;20038;-77
2024/02/02 05:20:10;;;;;;;4.20;1.23;;;;;;;;;;2066384;28;20066;-76
2024/02/02 05:21:29;;;;;;;4.47;0.93;;;;;;;;;;2063397;28;20504;-79
2024/02/02 05:22:48;;;;;;;5.70;1.23;;;;;;;;;;2071990;28;20033;-80
2024/02/02 05:24:07;;;;;;;8.15;1.63;;;;;;;;;;2072417;28;20026;-80
2024/02/02 05:25:26;;;;;;;3.35;1.52;;;;;;;;;;2075989;28;20022;-79
2024/02/02 05:26:45;;;;;;;11.13;1.35;;;;;;;;;;2064878;28;20038;-78
2024/02/02 05:28:04;;;;;;;9.55;1.17;;;;;;;;;;2073196;28;20030;-80
2024/02/02 05:29:23;;;;;;;9.07;1.38;;;;;;;;;;2073579;28;20034;-78
2024/02/02 05:30:42;;;;;;;4.88;1.00;;;;;;;;;;2073408;28;20108;-80
2024/02/02 05:32:01;;;;;;;11.30;1.52;;;;;;;;;;2075662;28;20109;-80
2024/02/02 05:33:20;;;;;;;6.78;1.10;;;;;;;;;;2067214;28;20081;-81
2024/02/02 05:34:40;;;;;;;5.63;1.20;;;;;;;;;;2060779;28;20030;-82
2024/02/02 05:36:01;;;;;;;8.20;1.38;;;;;;;;;;2062620;28;20038;-86
2024/02/02 05:37:19;;;;;;;8.15;1.65;;;;;;;;;;2062727;28;20110;-85
2024/02/02 05:38:41;;;;;;;10.40;1.77;;;;;;;;;;2069565;28;20054;-83
2024/02/02 05:40:00;;;;;;;3.40;1.15;;;;;;;;;;2075792;28;20073;-87
2024/02/02 05:41:19;;;;;;;6.85;1.30;;;;;;;;;;2073073;28;20052;-80
2024/02/02 05:42:38;;;;;;;8.82;1.35;;;;;;;;;;2068035;28;20121;-80
2024/02/02 05:43:57;;;;;;;8.38;1.50;;;;;;;;;;2064388;28;20038;-84
2024/02/02 05:45:16;;;;;;;5.32;1.60;;;;;;;;;;2070752;28;20492;-81
2024/02/02 05:46:35;;;;;;;8.73;1.85;;;;;;;;;;2067873;28;20041;-84
2024/02/02 05:47:54;;;;;;;11.45;1.40;;;;;;;;;;2063846;28;20030;-86
2024/02/02 05:49:13;;;;;;;7.47;1.30;;;;;;;;;;2070956;28;20034;-85
2024/02/02 05:50:32;;;;;;;10.15;1.98;;;;;;;;;;2065798;28;20038;-78
2024/02/02 05:51:51;;;;;;;13.23;1.83;;;;;;;;;;2072195;28;20029;-76
2024/02/02 05:53:10;;;;;;;9.05;0.95;;;;;;;;;;2066272;28;20481;-77
2024/02/02 05:54:30;;;;;;;9.93;1.17;;;;;;;;;;2072478;28;20077;-76
2024/02/02 05:55:49;;;;;;;4.75;1.10;;;;;;;;;;2059294;28;20576;-76
2024/02/02 05:57:08;;;;;;;10.07;1.30;;;;;;;;;;2067743;28;20030;-76
2024/02/02 05:58:27;;;;;;;14.57;1.40;;;;;;;;;;2074045;28;20161;-77
2024/02/02 05:59:46;;;;;;;7.03;1.25;;;;;;;;;;2075857;28;20508;-77
2024/02/02 06:01:05;;;;;;;12.05;1.80;;;;;;;;;;2075044;28;20034;-78
2024/02/02 06:02:24;;;;;;;14.55;1.70;;;;;;;;;;2073465;28;20026;-77
2024/02/02 06:03:43;;;;;;;6.30;1.35;;;;;;;;;;2063261;28;20353;-77
2024/02/02 06:05:02;;;;;;;22.75;2.13;;;;;;;;;;2061083;28;20026;-76
2024/02/02 06:06:21;;;;;;;5.95;1.35;;;;;;;;;;2066945;28;20034;-77
2024/02/02 06:07:40;;;;;;;4.30;1.30;;;;;;;;;;2071445;28;20117;-77
2024/02/02 06:08:59;;;;;;;15.32;1.70;;;;;;;;;;2070952;28;20139;-76
2024/02/02 06:10:18;;;;;;;9.18;1.20;;;;;;;;;;2072087;28;20034;-76
2024/02/02 06:11:37;;;;;;;9.23;1.25;;;;;;;;;;2072926;28;20069;-76
2024/02/02 06:12:56;;;;;;;7.57;1.35;;;;;;;;;;2074061;28;20294;-76
2024/02/02 06:14:15;;;;;;;5.65;1.30;;;;;;;;;;2066303;28;20035;-75
2024/02/02 06:15:34;;;;;;;9.02;1.67;;;;;;;;;;2061477;28;20034;-77
2024/02/02 06:16:53;;;;;;;12.50;1.80;;;;;;;;;;2067066;28;20050;-76
2024/02/02 06:18:15;;;;;;;10.27;1.83;;;;;;;;;;2063689;28;20452;-75
2024/02/02 06:19:35;;;;;;;6.00;1.10;;;;;;;;;;2071821;28;20030;-74
2024/02/02 06:20:54;;;;;;;6.10;1.40;;;;;;;;;;2074894;28;20053;-75
2024/02/02 06:22:13;;;;;;;8.98;1.10;;;;;;;;;;2075344;28;20397;-74
2024/02/02 06:23:32;;;;;;;6.78;2.00;;;;;;;;;;2061184;28;20045;-74
2024/02/02 06:24:51;;;;;;;5.72;1.48;;;;;;;;;;2067258;28;20038;-74
2024/02/02 06:26:10;;;;;;;6.80;1.58;;;;;;;;;;2074803;28;20057;-75
2024/02/02 06:27:30;;;;;;;3.45;0.95;;;;;;;;;;2066316;28;20042;-76
2024/02/02 06:28:49;;;;;;;10.27;1.50;;;;;;;;;;2074463;28;20042;-75
2024/02/02 06:30:09;;;;;;;4.97;1.23;;;;;;;;;;2061489;28;20030;-75
2024/02/02 06:31:28;;;;;;;9.85;1.48;;;;;;;;;;2069956;28;20125;-75
2024/02/02 06:32:49;;;;;;;7.03;1.98;;;;;;;;;;2070908;28;20029;-75
2024/02/02 06:34:08;;;;;;;10.30;1.40;;;;;;;;;;2063294;28;20034;-76
2024/02/02 06:35:27;;;;;;;20.88;1.85;;;;;;;;;;2069203;28;20452;-75
2024/02/02 06:36:47;;;;;;;12.13;1.60;;;;;;;;;;2062968;28;20718;-74
2024/02/02 06:38:06;;;;;;;25.05;2.30;;;;;;;;;;2067776;28;20026;-75
2024/02/02 06:39:25;;;;;;;10.20;2.08;;;;;;;;;;2063046;28;20022;-76
2024/02/02 06:40:44;;;;;;;4.18;1.58;;;;;;;;;;2067089;28;20034;-76
2024/02/02 06:42:03;;;;;;;15.73;1.48;;;;;;;;;;2073301;28;20027;-76
2024/02/02 06:43:22;;;;;;;9.38;1.38;;;;;;;;;;2073544;28;20022;-76
2024/02/02 06:44:41;;;;;;;8.65;1.15;;;;;;;;;;2064546;28;20054;-76
2024/02/02 06:46:00;;;;;;;10.93;1.30;;;;;;;;;;2068961;28;20021;-77
2024/02/02 06:47:19;;;;;;;12.77;1.42;;;;;;;;;;2062968;28;20022;-78
2024/02/02 06:48:38;;;;;;;6.18;1.40;;;;;;;;;;2068790;28;20029;-77
2024/02/02 06:49:57;;;;;;;10.77;2.15;;;;;;;;;;2065891;28;20038;-74
2024/02/02 06:51:15;;;;;;;5.05;1.08;;;;;;;;;;2070193;28;20030;-77
2024/02/02 06:52:35;;;;;;;8.75;1.50;;;;;;;;;;2074782;28;20046;-75
2024/02/02 06:53:54;;;;;;;12.80;1.55;;;;;;;;;;2074188;28;20037;-75
2024/02/02 06:55:13;;;;;;;12.65;1.85;;;;;;;;;;2074345;28;20404;-75
2024/02/02 06:56:41;;;;;;;10.32;2.05;;;;;;;;;;2074949;28;20504;-75
2024/02/02 06:58:01;;;;;;;15.10;2.10;;;;;;;;;;2075011;28;20077;-75
2024/02/02 06:59:21;;;;;;;7.68;1.10;;;;;;;;;;2076413;28;20067;-76
2024/02/02 07:00:40;;;;;;;6.95;1.42;;;;;;;;;;2074908;28;20018;-81
2024/02/02 07:01:59;;;;;;;10.30;1.42;;;;;;;;;;2065870;28;20034;-81
2024/02/02 07:03:19;;;;;;;8.27;1.58;;;;;;;;;;2072566;28;20030;-80
2024/02/02 07:04:38;;;;;;;10.23;1.73;;;;;;;;;;2074831;28;20038;-80
2024/02/02 07:05:57;;;;;;;5.50;0.85;;;;;;;;;;2073263;28;20042;-81
2024/02/02 07:07:17;;;;;;;8.75;1.40;;;;;;;;;;2074833;28;20548;-80
2024/02/02 07:08:35;;;;;;;15.15;1.90;;;;;;;;;;2074872;28;20381;-80
2024/02/02 07:09:58;;;;;;;14.05;2.28;;;;;;;;;;2073283;28;20026;-81
2024/02/02 07:11:32;;;;;;;11.88;1.67;;;;;;;;;;2065999;28;20077;-81
2024/02/02 07:12:59;;;;;;;16.23;1.98;;;;;;;;;;2072044;28;20116;-81
2024/02/02 07:14:37;;;;;;;20.77;2.20;;;;;;;;;;2074549;28;20428;-80
2024/02/02 07:15:56;;;;;;;13.88;1.80;;;;;;;;;;2075681;28;20022;-80
2024/02/02 07:17:34;;;;;;;12.32;2.33;;;;;;;;;;2075500;28;20180;-80
2024/02/02 07:18:53;;;;;;;9.10;1.50;;;;;;;;;;2076508;28;20030;-80
2024/02/02 07:20:36;;;;;;;5.53;1.30;;;;;;;;;;2076800;28;20034;-81
2024/02/02 07:21:55;;;;;;;12.80;1.70;;;;;;;;;;2077551;28;20022;-81
2024/02/02 07:23:24;;;;;;;9.68;1.92;;;;;;;;;;2072818;28;20480;-80
2024/02/02 07:24:43;;;;;;;8.15;1.58;;;;;;;;;;2074278;28;20066;-80
2024/02/02 07:26:06;;;;;;;8.50;1.90;;;;;;;;;;2073830;28;20030;-79
2024/02/02 07:27:44;;;;;;;6.53;1.70;;;;;;;;;;2074482;28;20029;-79
2024/02/02 07:29:05;;;;;;;9.50;1.67;;;;;;;;;;2073220;28;20507;-80
2024/02/02 07:30:33;;;;;;;12.25;2.72;;;;;;;;;;2066941;28;20022;-80
2024/02/02 07:31:52;;;;;;;12.98;2.55;;;;;;;;;;2066295;28;20019;-78
2024/02/02 07:33:19;;;;;;;14.60;1.67;;;;;;;;;;2072282;28;20047;-79
2024/02/02 07:34:38;;;;;;;14.60;2.00;;;;;;;;;;2076037;28;20025;-81
2024/02/02 07:36:00;;;;;;;18.83;1.75;;;;;;;;;;2074750;28;20022;-81
2024/02/02 07:37:43;;;;;;;9.05;1.55;;;;;;;;;;2076856;28;20117;-81
2024/02/02 07:39:01;;;;;;;6.88;1.60;;;;;;;;;;2073955;28;20061;-80
2024/02/02 07:40:31;;;;;;;20.15;2.42;;;;;;;;;;2066106;28;20026;-80
2024/02/02 07:41:50;;;;;;;16.85;2.58;;;;;;;;;;2072578;28;20030;-81
2024/02/02 07:43:12;;;;;;;11.38;1.98;;;;;;;;;;2074051;28;20026;-82
2024/02/02 07:44:31;;;;;;;13.57;1.60;;;;;;;;;;2067188;28;20026;-82
2024/02/02 07:45:49;;;;;;;10.43;1.40;;;;;;;;;;2071947;28;20038;-81
2024/02/02 07:47:08;;;;;;;7.93;1.20;;;;;;;;;;2076135;28;20413;-82
2024/02/02 07:48:27;;;;;;;12.43;1.90;;;;;;;;;;2071120;28;20038;-81
2024/02/02 07:49:46;;;;;;;14.30;2.55;;;;;;;;;;2075201;28;20025;-81
2024/02/02 07:51:07;;;;;;;17.92;1.20;;;;;;;;;;2074374;28;20029;-81
2024/02/02 07:52:26;;;;;;;13.15;1.25;;;;;;;;;;2074048;28;20452;-82
2024/02/02 07:53:46;;;;;;;16.92;1.98;;;;;;;;;;2075704;28;20460;-81
2024/02/02 07:55:05;;;;;;;13.88;1.98;;;;;;;;;;2074000;28;20038;-81
2024/02/02 07:56:25;;;;;;;9.18;1.83;;;;;;;;;;2075314;28;20492;-81
2024/02/02 07:57:45;;;;;;;13.48;1.92;;;;;;;;;;2075007;28;20108;-85
2024/02/02 07:59:03;;;;;;;12.82;1.90;;;;;;;;;;2063998;28;20113;-81
2024/02/02 08:00:22;;;;;;;3.83;1.58;;;;;;;;;;2070805;28;20030;-84
2024/02/02 08:01:41;;;;;;;12.77;1.50;;;;;;;;;;2066773;28;20345;-84
2024/02/02 08:03:00;;;;;;;4.30;1.40;;;;;;;;;;2072165;28;20034;-84
2024/02/02 08:04:19;;;;;;;12.15;1.88;;;;;;;;;;2072817;28;20030;-82
2024/02/02 08:05:38;;;;;;;6.22;1.15;;;;;;;;;;2074045;28;20535;-83
2024/02/02 08:06:57;;;;;;;7.28;1.58;;;;;;;;;;2065566;28;20129;-83